Time;durP1;ratioP1;P1;durP2;ratioP2;P2;SDS_P1;SDS_P2;PMS_P1;PMS_P2;Temp;Humidity;BMP_temperature;BMP_pressure;BME280_temperature;BME280_humidity;BME280_pressure;Samples;Min_cycle;Max_cycle;Signal;HPM_P1;HPM_P2
2023/06/14 00:00:23;;;;;;;6.43;5.87;;;;;;;17.37;40.59;155825.81;5007794;28;20488;-78
2023/06/14 00:02:50;;;;;;;5.80;5.20;;;;;;;17.44;41.02;155842.75;4992470;28;20464;-79
2023/06/14 00:05:16;;;;;;;6.30;5.70;;;;;;;17.49;40.70;155855.78;5006559;28;20445;-79
2023/06/14 00:07:44;;;;;;;6.03;5.47;;;;;;;17.53;40.66;155867.53;4988485;28;20436;-79
2023/06/14 00:10:11;;;;;;;5.93;5.30;;;;;;;17.56;40.23;155875.34;5009108;28;20457;-78
2023/06/14 00:12:39;;;;;;;5.73;5.20;;;;;;;17.52;41.02;155863.59;5001099;28;20461;-79
2023/06/14 00:15:07;;;;;;;6.27;5.67;;;;;;;17.44;40.59;155842.75;5016075;28;20448;-78
2023/06/14 00:17:33;;;;;;;6.47;5.87;;;;;;;17.34;40.88;155818.00;4988941;28;20885;-78
2023/06/14 00:20:03;;;;;;;7.20;5.90;;;;;;;17.23;41.41;155788.09;5011612;28;20795;-78
2023/06/14 00:22:30;;;;;;;6.30;5.70;;;;;;;17.08;41.89;155750.34;4993785;28;20538;-79
2023/06/14 00:24:58;;;;;;;6.93;5.93;;;;;;;16.99;41.69;155726.94;4991259;28;20480;-79
2023/06/14 00:27:25;;;;;;;6.37;5.70;;;;;;;16.84;42.05;155687.88;4988209;28;20803;-79
2023/06/14 00:29:52;;;;;;;6.63;6.03;;;;;;;16.74;42.77;155663.16;4972506;28;20464;-79
2023/06/14 00:32:19;;;;;;;6.73;5.80;;;;;;;16.63;42.57;155633.22;4997023;28;20473;-79
2023/06/14 00:34:46;;;;;;;5.93;5.33;;;;;;;16.60;43.11;155626.72;4992583;28;20575;-79
2023/06/14 00:37:12;;;;;;;6.30;5.70;;;;;;;16.63;43.87;155633.22;4991651;28;20485;-79
2023/06/14 00:39:39;;;;;;;6.90;5.80;;;;;;;16.67;43.38;155644.97;4989876;28;20463;-79
2023/06/14 00:42:07;;;;;;;6.87;6.20;;;;;;;16.67;43.76;155644.97;5004964;28;20464;-79
2023/06/14 00:44:34;;;;;;;6.10;5.60;;;;;;;16.65;44.08;155639.78;5003624;28;20963;-79
2023/06/14 00:47:02;;;;;;;6.43;5.83;;;;;;;16.66;43.83;155642.34;5006466;28;20971;-79
2023/06/14 00:49:29;;;;;;;7.50;6.07;;;;;;;16.73;43.73;155660.53;4977307;28;20454;-80
2023/06/14 00:51:56;;;;;;;6.50;5.90;;;;;;;16.80;43.38;155678.78;5004028;28;21081;-80
2023/06/14 00:54:22;;;;;;;5.70;5.20;;;;;;;16.77;43.12;155670.97;4996680;28;20473;-79
2023/06/14 00:56:49;;;;;;;6.40;5.80;;;;;;;16.70;43.68;155652.78;5003633;28;20487;-80
2023/06/14 00:59:17;;;;;;;6.70;5.90;;;;;;;16.63;43.77;155634.53;5008585;28;20460;-80
2023/06/14 01:01:44;;;;;;;6.40;5.80;;;;;;;16.50;44.15;155600.66;4981681;28;20448;-80
2023/06/14 01:04:11;;;;;;;6.70;6.10;;;;;;;16.38;44.38;155569.47;4989998;28;20540;-79
2023/06/14 01:06:46;;;;;;;6.90;5.60;;;;;;;16.31;44.67;155552.56;4993279;28;20496;-80
2023/06/14 01:09:20;;;;;;;6.67;6.07;;;;;;;16.26;44.69;155538.25;4990885;28;20452;-80
2023/06/14 01:11:52;;;;;;;7.07;5.97;;;;;;;16.31;44.58;155552.56;4989444;28;20599;-80
2023/06/14 01:14:21;;;;;;;6.63;6.03;;;;;;;16.36;43.95;155564.28;4997044;28;20492;-80
2023/06/14 01:16:52;;;;;;;7.30;6.03;;;;;;;16.39;44.18;155573.34;5007612;28;20499;-80
2023/06/14 01:19:22;;;;;;;6.73;6.13;;;;;;;16.42;44.53;155579.88;4999404;28;20835;-80
2023/06/14 01:21:50;;;;;;;7.10;5.70;;;;;;;16.51;44.29;155603.28;4988650;28;20444;-80
2023/06/14 01:24:19;;;;;;;7.60;6.80;;;;;;;16.57;44.58;155618.97;4989933;28;20464;-79
2023/06/14 01:26:51;;;;;;;8.20;6.10;;;;;;;16.49;43.92;155598.09;4975365;28;20441;-79
2023/06/14 01:29:18;;;;;;;7.43;6.73;;;;;;;16.38;44.33;155570.78;5007901;28;20441;-80
2023/06/14 01:31:46;;;;;;;12.13;7.10;;;;;;;16.19;44.62;155521.38;4990584;28;20471;-80
2023/06/14 01:34:13;;;;;;;6.30;5.80;;;;;;;16.08;44.86;155491.44;4971279;28;20981;-79
2023/06/14 01:36:41;;;;;;;6.70;6.10;;;;;;;16.07;44.84;155488.88;5003841;28;20539;-80
2023/06/14 01:39:09;;;;;;;6.87;6.23;;;;;;;16.07;45.26;155488.88;4992549;28;20463;-79
2023/06/14 01:41:37;;;;;;;6.43;5.73;;;;;;;16.00;45.00;155470.63;4994492;28;20444;-79
2023/06/14 01:44:04;;;;;;;6.80;6.20;;;;;;;15.91;45.45;155448.56;5005022;28;20457;-79
2023/06/14 01:46:33;;;;;;;9.40;6.37;;;;;;;15.82;45.42;155426.44;5007576;28;20450;-79
2023/06/14 01:49:00;;;;;;;7.10;6.40;;;;;;;15.77;45.52;155412.13;4989419;28;20502;-79
2023/06/14 01:51:27;;;;;;;6.60;6.00;;;;;;;15.76;45.91;155409.53;4990510;28;21010;-79
2023/06/14 01:53:53;;;;;;;6.40;5.80;;;;;;;15.80;46.53;155421.25;4992577;28;20480;-79
2023/06/14 01:56:21;;;;;;;6.67;6.07;;;;;;;15.89;46.65;155442.00;4989429;28;20472;-79
2023/06/14 01:58:51;;;;;;;6.10;5.50;;;;;;;15.95;46.12;155457.63;4996109;28;20499;-79
2023/06/14 02:01:18;;;;;;;6.60;5.40;;;;;;;15.96;45.63;155460.25;4980490;28;20448;-79
2023/06/14 02:03:46;;;;;;;6.97;6.27;;;;;;;15.91;46.08;155447.25;4997832;28;20507;-80
2023/06/14 02:06:16;;;;;;;6.70;6.10;;;;;;;15.85;46.05;155432.94;4987006;28;20457;-80
2023/06/14 02:08:43;;;;;;;7.63;5.70;;;;;;;15.78;46.05;155414.72;5003205;28;20542;-79
2023/06/14 02:11:09;;;;;;;7.10;6.37;;;;;;;15.72;46.37;155400.47;4996690;28;20456;-79
2023/06/14 02:13:36;;;;;;;7.40;6.30;;;;;;;15.69;46.12;155392.66;4995014;28;20459;-79
2023/06/14 02:16:05;;;;;;;6.07;5.50;;;;;;;15.66;46.99;155383.53;4990804;28;20468;-78
2023/06/14 02:18:32;;;;;;;6.63;6.03;;;;;;;15.65;46.17;155380.91;5004734;28;20508;-79
2023/06/14 02:20:58;;;;;;;9.43;6.30;;;;;;;15.67;46.31;155386.16;5008936;28;20933;-79
2023/06/14 02:23:25;;;;;;;10.70;6.43;;;;;;;15.67;45.99;155386.16;4995419;28;20447;-79
2023/06/14 02:25:51;;;;;;;7.10;6.30;;;;;;;15.65;46.06;155382.22;4989624;28;20473;-79
2023/06/14 02:28:18;;;;;;;5.90;5.40;;;;;;;15.62;46.28;155374.41;5003750;28;20884;-79
2023/06/14 02:30:44;;;;;;;8.23;6.00;;;;;;;15.62;46.28;155373.16;4972946;28;20518;-79
2023/06/14 02:33:12;;;;;;;7.73;6.27;;;;;;;15.63;46.40;155375.72;5002140;28;20455;-79
2023/06/14 02:35:40;;;;;;;7.23;6.53;;;;;;;15.58;46.30;155364.03;4993693;28;20903;-79
2023/06/14 02:38:07;;;;;;;6.67;5.73;;;;;;;15.55;46.54;155354.94;4995742;28;20930;-79
2023/06/14 02:40:33;;;;;;;6.27;5.67;;;;;;;15.49;46.89;155340.63;5009212;28;20453;-79
2023/06/14 02:43:00;;;;;;;6.80;6.20;;;;;;;15.37;46.89;155309.41;5009460;28;20474;-79
2023/06/14 02:45:26;;;;;;;6.60;6.00;;;;;;;15.29;47.95;155287.31;5007956;28;20830;-79
2023/06/14 02:47:55;;;;;;;7.97;6.50;;;;;;;15.21;48.72;155267.81;5011858;28;20441;-79
2023/06/14 02:50:23;;;;;;;6.30;5.70;;;;;;;15.16;48.06;155254.81;5008132;28;20465;-79
2023/06/14 02:52:50;;;;;;;7.50;5.40;;;;;;;15.11;48.31;155243.16;5004625;28;20519;-80
2023/06/14 02:55:17;;;;;;;9.67;6.40;;;;;;;15.09;48.26;155236.66;4991774;28;20464;-79
2023/06/14 02:57:44;;;;;;;6.47;5.77;;;;;;;15.05;48.33;155227.53;4994349;28;20901;-79
2023/06/14 03:00:12;;;;;;;6.90;5.30;;;;;;;15.07;48.24;155231.41;4992519;28;20462;-79
2023/06/14 03:02:39;;;;;;;6.90;5.90;;;;;;;15.02;48.62;155218.44;4994377;28;20493;-79
2023/06/14 03:05:08;;;;;;;6.63;5.90;;;;;;;15.02;49.63;155218.44;4995853;28;20473;-79
2023/06/14 03:07:40;;;;;;;6.87;6.00;;;;;;;15.05;50.13;155226.22;4993393;28;21016;-79
2023/06/14 03:10:08;;;;;;;7.20;5.97;;;;;;;15.10;49.75;155239.22;4990500;28;20464;-79
2023/06/14 03:12:36;;;;;;;6.97;6.27;;;;;;;15.16;50.11;155256.13;5018308;28;20454;-79
2023/06/14 03:15:04;;;;;;;7.10;6.40;;;;;;;15.08;49.86;155235.34;4998783;28;20450;-79
2023/06/14 03:17:35;;;;;;;10.37;6.40;;;;;;;15.03;50.04;155221.03;4989679;28;20479;-79
2023/06/14 03:20:05;;;;;;;7.37;6.40;;;;;;;15.01;50.26;155217.13;4992143;28;20462;-79
2023/06/14 03:22:32;;;;;;;6.93;6.20;;;;;;;14.99;50.09;155210.63;5004352;28;21355;-79
2023/06/14 03:25:00;;;;;;;6.97;6.27;;;;;;;14.94;50.66;155197.66;4992562;28;20534;-79
2023/06/14 03:27:30;;;;;;;5.80;5.23;;;;;;;14.86;50.37;155176.84;4992665;28;20443;-79
2023/06/14 03:29:57;;;;;;;6.00;5.43;;;;;;;14.75;50.47;155148.25;4991852;28;20465;-79
2023/06/14 03:32:25;;;;;;;7.03;6.33;;;;;;;14.72;50.04;155140.50;5009789;28;20461;-79
2023/06/14 03:34:52;;;;;;;8.40;6.57;;;;;;;14.70;51.46;155136.59;5009400;28;20460;-79
2023/06/14 03:37:22;;;;;;;8.50;5.50;;;;;;;14.78;51.49;155157.38;4993315;28;20503;-79
2023/06/14 03:39:49;;;;;;;7.40;6.70;;;;;;;14.82;50.51;155166.47;4985700;28;20466;-79
2023/06/14 03:42:21;;;;;;;7.20;6.10;;;;;;;14.83;51.19;155169.06;4983641;28;20461;-79
2023/06/14 03:44:49;;;;;;;7.33;6.60;;;;;;;14.84;50.75;155171.66;4992263;28;20473;-79
2023/06/14 03:47:24;;;;;;;6.90;6.30;;;;;;;14.87;50.56;155179.47;4978082;28;20445;-79
2023/06/14 03:49:51;;;;;;;6.63;5.93;;;;;;;14.87;50.73;155180.78;5004078;28;20882;-79
2023/06/14 03:52:18;;;;;;;8.00;7.30;;;;;;;14.91;50.84;155191.16;4979280;28;20460;-79
2023/06/14 03:54:46;;;;;;;6.60;5.90;;;;;;;14.92;51.99;155192.47;4971614;28;20488;-79
2023/06/14 03:57:13;;;;;;;7.93;7.23;;;;;;;14.97;51.87;155206.75;4988179;28;20494;-79
2023/06/14 03:59:42;;;;;;;6.20;5.60;;;;;;;15.03;51.12;155222.34;4992513;28;20503;-79
2023/06/14 04:02:09;;;;;;;8.47;6.57;;;;;;;15.05;51.99;155226.22;4989574;28;20467;-79
2023/06/14 04:04:35;;;;;;;7.20;6.07;;;;;;;15.09;52.16;155236.66;4986653;28;20983;-79
2023/06/14 04:07:03;;;;;;;7.40;6.63;;;;;;;15.11;50.52;155243.16;5002719;28;21199;-79
2023/06/14 04:09:31;;;;;;;7.17;6.10;;;;;;;15.18;50.85;155260.00;5004650;28;20455;-79
2023/06/14 04:11:58;;;;;;;7.23;6.63;;;;;;;15.30;50.67;155291.22;5003570;28;20802;-79
2023/06/14 04:14:25;;;;;;;7.20;6.50;;;;;;;15.50;49.78;155343.25;4991155;28;21076;-79
2023/06/14 04:16:53;;;;;;;6.77;6.13;;;;;;;15.65;51.42;155382.22;5002218;28;20456;-79
2023/06/14 04:19:20;;;;;;;6.37;5.77;;;;;;;15.82;50.52;155425.13;4984814;28;20504;-79
2023/06/14 04:21:47;;;;;;;6.53;5.93;;;;;;;16.07;48.60;155490.13;4982910;28;20816;-79
2023/06/14 04:24:16;;;;;;;7.20;6.30;;;;;;;16.28;49.38;155544.75;5014086;28;20468;-79
2023/06/14 04:26:47;;;;;;;8.00;6.57;;;;;;;16.49;49.09;155598.09;4986992;28;20472;-79
2023/06/14 04:29:16;;;;;;;6.03;5.40;;;;;;;16.69;49.04;155650.16;4985594;28;20474;-79
2023/06/14 04:31:44;;;;;;;6.83;6.13;;;;;;;16.86;48.17;155694.41;4981982;28;20465;-79
2023/06/14 04:34:15;;;;;;;8.10;6.20;;;;;;;17.14;48.46;155764.66;4983907;28;20570;-79
2023/06/14 04:36:48;;;;;;;6.40;5.80;;;;;;;17.29;47.45;155803.72;5000798;28;20484;-79
2023/06/14 04:39:17;;;;;;;7.17;6.37;;;;;;;17.45;48.29;155846.63;4983761;28;20772;-79
2023/06/14 04:41:44;;;;;;;7.57;6.87;;;;;;;17.47;46.62;155851.84;4984021;28;20976;-80
2023/06/14 04:44:13;;;;;;;7.53;6.57;;;;;;;17.58;46.33;155879.22;4989896;28;20999;-78
2023/06/14 04:46:47;;;;;;;6.60;6.00;;;;;;;17.74;46.66;155919.63;4970709;28;20465;-78
2023/06/14 04:49:23;;;;;;;7.50;6.80;;;;;;;18.07;45.97;156006.84;4988171;28;20473;-78
2023/06/14 04:51:50;;;;;;;6.90;6.20;;;;;;;18.34;45.55;156075.88;5004868;28;20812;-79
2023/06/14 04:54:18;;;;;;;6.80;6.20;;;;;;;18.41;46.67;156092.78;5002753;28;20860;-78
2023/06/14 04:56:49;;;;;;;7.80;7.03;;;;;;;18.42;46.54;156096.72;4987988;28;20453;-78
2023/06/14 04:59:17;;;;;;;6.83;6.13;;;;;;;18.46;48.52;156105.81;4980377;28;20478;-78
2023/06/14 05:01:47;;;;;;;7.70;6.83;;;;;;;18.48;48.48;156112.38;5001276;28;20446;-78
2023/06/14 05:04:14;;;;;;;7.63;7.03;;;;;;;18.43;49.26;156097.97;4983068;28;20936;-78
2023/06/14 05:06:44;;;;;;;7.53;6.83;;;;;;;18.57;49.24;156134.53;4982638;28;20472;-78
2023/06/14 05:09:11;;;;;;;7.20;6.50;;;;;;;18.69;49.15;156165.81;5000566;28;20820;-78
2023/06/14 05:11:37;;;;;;;8.17;7.20;;;;;;;18.76;48.88;156184.03;4985092;28;20879;-78
2023/06/14 05:14:06;;;;;;;8.50;7.60;;;;;;;18.81;48.17;156198.38;4969130;28;20532;-78
2023/06/14 05:16:32;;;;;;;7.13;6.43;;;;;;;18.92;48.35;156225.72;4999436;28;20453;-78
2023/06/14 05:18:59;;;;;;;7.40;6.70;;;;;;;19.18;47.84;156293.50;4983503;28;20476;-79
2023/06/14 05:21:25;;;;;;;7.47;6.73;;;;;;;19.31;47.61;156326.06;4999267;28;20549;-78
2023/06/14 05:23:53;;;;;;;7.57;6.87;;;;;;;19.39;45.53;156348.28;4984352;28;20450;-78
2023/06/14 05:26:20;;;;;;;9.53;7.20;;;;;;;19.52;46.76;156379.53;4999425;28;20484;-78
2023/06/14 05:28:47;;;;;;;8.37;7.53;;;;;;;19.35;47.64;156337.78;5001481;28;20438;-83
2023/06/14 05:31:13;;;;;;;8.80;7.23;;;;;;;19.29;44.97;156322.16;5004672;28;20472;-83
2023/06/14 05:33:40;;;;;;;7.77;6.97;;;;;;;19.38;45.73;156345.66;4988413;28;20939;-83
2023/06/14 05:36:07;;;;;;;7.87;7.10;;;;;;;19.47;47.66;156367.81;4988444;28;20462;-83
2023/06/14 05:38:33;;;;;;;7.43;6.30;;;;;;;19.64;47.84;156410.84;4986515;28;20481;-82
2023/06/14 05:41:01;;;;;;;6.40;5.90;;;;;;;19.79;45.00;156449.94;4982070;28;20473;-83
2023/06/14 05:43:28;;;;;;;7.70;6.23;;;;;;;19.91;46.40;156482.53;4980148;28;20541;-83
2023/06/14 05:45:54;;;;;;;8.13;7.33;;;;;;;20.07;46.52;156522.94;4984012;28;20454;-83
2023/06/14 05:48:21;;;;;;;9.10;8.20;;;;;;;20.24;44.01;156567.38;4982802;28;20458;-83
2023/06/14 05:50:48;;;;;;;7.30;6.60;;;;;;;20.24;43.74;156566.06;5001578;28;20462;-83
2023/06/14 05:53:14;;;;;;;7.00;6.40;;;;;;;20.31;43.48;156584.31;5001971;28;20485;-84
2023/06/14 05:55:41;;;;;;;7.03;6.33;;;;;;;20.38;42.66;156602.59;4984492;28;20461;-84
2023/06/14 05:58:10;;;;;;;8.90;7.80;;;;;;;20.35;45.50;156596.06;5000889;28;20544;-83
2023/06/14 06:00:37;;;;;;;7.40;6.70;;;;;;;20.54;42.08;156645.59;4997726;28;20497;-83
2023/06/14 06:03:03;;;;;;;7.50;6.80;;;;;;;20.64;41.50;156671.72;4998821;28;20473;-83
2023/06/14 06:05:30;;;;;;;7.27;6.57;;;;;;;20.65;40.72;156674.31;4985653;28;20446;-83
2023/06/14 06:07:56;;;;;;;7.80;6.83;;;;;;;20.67;42.14;156676.94;5000077;28;20464;-83
2023/06/14 06:10:23;;;;;;;8.20;6.90;;;;;;;20.95;41.43;156751.31;4965753;28;20450;-84
2023/06/14 06:12:51;;;;;;;7.03;6.20;;;;;;;21.01;40.70;156766.97;4983064;28;20460;-84
2023/06/14 06:15:20;;;;;;;7.37;6.60;;;;;;;21.13;41.33;156797.00;4971668;28;20862;-84
2023/06/14 06:17:46;;;;;;;10.90;6.67;;;;;;;21.00;41.77;156764.34;4985448;28;20542;-84
2023/06/14 06:20:13;;;;;;;7.80;6.70;;;;;;;20.94;41.93;156747.41;4996406;28;20454;-84
2023/06/14 06:22:40;;;;;;;7.70;6.90;;;;;;;20.82;43.25;156717.38;4999967;28;21881;-84
2023/06/14 06:25:08;;;;;;;7.17;6.47;;;;;;;21.10;42.41;156790.50;4999961;28;20471;-83
2023/06/14 06:27:35;;;;;;;7.20;6.60;;;;;;;21.34;40.00;156851.81;4999830;28;20472;-84
2023/06/14 06:30:02;;;;;;;7.47;6.77;;;;;;;21.28;41.58;156836.19;4978291;28;20480;-83
2023/06/14 06:32:30;;;;;;;6.63;5.93;;;;;;;21.29;38.99;156837.50;4980504;28;20453;-84
2023/06/14 06:34:57;;;;;;;7.33;5.93;;;;;;;21.33;39.63;156849.25;4965310;28;21024;-84
2023/06/14 06:37:23;;;;;;;7.33;6.63;;;;;;;21.63;39.27;156927.53;4983934;28;20453;-84
2023/06/14 06:39:50;;;;;;;7.63;6.23;;;;;;;21.88;38.93;156990.25;4980764;28;20480;-84
2023/06/14 06:42:16;;;;;;;6.80;6.10;;;;;;;22.00;38.72;157021.63;4985385;28;20481;-84
2023/06/14 06:44:43;;;;;;;8.40;6.73;;;;;;;22.15;37.98;157062.09;4974535;28;20867;-84
2023/06/14 06:47:11;;;;;;;7.60;7.00;;;;;;;22.26;38.54;157090.84;4998976;28;20458;-84
2023/06/14 06:49:40;;;;;;;9.30;6.50;;;;;;;22.16;38.03;157063.41;4999764;28;20445;-85
2023/06/14 06:52:08;;;;;;;7.10;6.40;;;;;;;21.90;38.88;156995.47;4999777;28;21166;-84
2023/06/14 06:54:35;;;;;;;7.73;7.03;;;;;;;21.79;39.43;156969.31;4993294;28;20486;-84
2023/06/14 06:57:02;;;;;;;7.57;6.80;;;;;;;21.85;39.33;156985.00;4999268;28;21171;-84
2023/06/14 06:59:28;;;;;;;9.53;7.33;;;;;;;21.93;39.13;157004.63;4996888;28;20509;-84
2023/06/14 07:01:55;;;;;;;7.43;6.77;;;;;;;21.95;39.25;157008.56;4999602;28;20512;-84
2023/06/14 07:04:21;;;;;;;6.90;5.77;;;;;;;22.13;39.17;157056.88;4993996;28;20508;-84
2023/06/14 07:06:49;;;;;;;10.93;7.10;;;;;;;22.43;38.91;157133.91;4996224;28;20576;-84
2023/06/14 07:09:16;;;;;;;6.80;6.20;;;;;;;22.53;38.45;157158.75;4996145;28;20497;-77
2023/06/14 07:11:44;;;;;;;8.00;7.30;;;;;;;22.44;37.93;157136.53;4978939;28;20467;-77
2023/06/14 07:14:36;;;;;;;8.83;6.97;;;;;;;22.48;38.22;157146.97;4999762;28;20814;-77
2023/06/14 07:17:03;;;;;;;8.20;7.30;;;;;;;22.48;38.46;157146.97;4998180;28;20457;-77
2023/06/14 07:19:30;;;;;;;7.13;6.53;;;;;;;22.69;38.24;157201.88;4997285;28;20482;-77
2023/06/14 07:21:58;;;;;;;7.00;6.37;;;;;;;22.69;37.31;157200.63;4999133;28;20481;-77
2023/06/14 07:24:25;;;;;;;7.70;6.50;;;;;;;22.40;38.51;157126.06;4999508;28;20454;-77
2023/06/14 07:26:51;;;;;;;6.70;6.10;;;;;;;22.58;38.37;157173.13;5001762;28;20469;-77
2023/06/14 07:29:18;;;;;;;8.07;7.37;;;;;;;22.91;38.12;157258.06;4987086;28;20481;-77
2023/06/14 07:31:44;;;;;;;10.67;7.13;;;;;;;22.86;37.74;157245.00;5003667;28;20473;-77
2023/06/14 07:34:11;;;;;;;7.70;7.00;;;;;;;22.77;38.42;157222.78;4987654;28;20460;-77
2023/06/14 07:36:37;;;;;;;7.37;6.67;;;;;;;22.91;38.59;157258.06;4987559;28;20512;-77
2023/06/14 07:39:06;;;;;;;7.90;7.20;;;;;;;23.15;37.37;157319.47;4988593;28;20564;-77
2023/06/14 07:41:32;;;;;;;12.03;7.40;;;;;;;23.08;37.48;157301.22;4988297;28;20458;-77
2023/06/14 07:43:59;;;;;;;7.97;7.00;;;;;;;22.89;37.25;157254.16;5003202;28;20802;-77
2023/06/14 07:46:25;;;;;;;7.80;7.03;;;;;;;22.87;38.24;157248.97;4986962;28;20469;-77
2023/06/14 07:48:52;;;;;;;7.60;6.90;;;;;;;23.01;37.73;157285.50;4989032;28;20453;-77
2023/06/14 07:51:19;;;;;;;7.93;7.23;;;;;;;23.17;37.50;157324.69;5002969;28;20458;-77
2023/06/14 07:53:46;;;;;;;8.03;7.23;;;;;;;23.11;37.46;157309.06;4995985;28;20483;-77
2023/06/14 07:56:14;;;;;;;7.63;7.00;;;;;;;22.86;37.62;157246.31;5006901;28;20468;-77
2023/06/14 07:58:40;;;;;;;7.67;6.83;;;;;;;23.01;38.42;157284.19;5008039;28;20510;-77
2023/06/14 08:01:07;;;;;;;10.27;7.23;;;;;;;22.94;38.25;157267.25;4997011;28;20456;-77
2023/06/14 08:03:34;;;;;;;8.00;6.50;;;;;;;23.10;38.00;157307.72;5006550;28;20887;-77
2023/06/14 08:06:01;;;;;;;8.40;7.57;;;;;;;22.99;37.94;157280.28;5004258;28;20457;-77
2023/06/14 08:08:28;;;;;;;10.70;7.10;;;;;;;22.85;38.36;157242.38;5006348;28;20530;-77
2023/06/14 08:10:54;;;;;;;8.10;6.90;;;;;;;23.14;37.82;157316.91;5006823;28;20456;-77
2023/06/14 08:13:22;;;;;;;9.03;8.13;;;;;;;23.27;38.21;157352.16;5005303;28;20883;-77
2023/06/14 08:15:49;;;;;;;8.47;7.57;;;;;;;23.08;38.24;157302.53;5005851;28;20866;-77
2023/06/14 08:18:15;;;;;;;10.50;7.87;;;;;;;23.01;38.27;157284.19;5007649;28;21017;-77
2023/06/14 08:20:42;;;;;;;8.37;7.57;;;;;;;23.20;38.54;157332.53;5006318;28;20441;-77
2023/06/14 08:23:08;;;;;;;7.77;6.93;;;;;;;23.30;38.85;157358.72;4997647;28;20498;-77
2023/06/14 08:25:35;;;;;;;8.63;7.60;;;;;;;23.08;38.69;157302.53;5006629;28;20825;-77
2023/06/14 08:28:01;;;;;;;8.63;7.73;;;;;;;23.18;39.51;157328.66;5007285;28;20806;-77
2023/06/14 08:30:29;;;;;;;9.40;8.50;;;;;;;23.43;38.23;157392.75;5005058;28;20449;-77
2023/06/14 08:32:56;;;;;;;8.63;7.83;;;;;;;23.43;38.50;157392.75;5005176;28;20507;-78
2023/06/14 08:35:22;;;;;;;8.10;7.40;;;;;;;23.45;38.52;157397.97;5005651;28;20492;-78
2023/06/14 08:37:50;;;;;;;7.63;7.03;;;;;;;23.56;38.94;157428.00;4987517;28;20448;-78
2023/06/14 08:40:20;;;;;;;9.13;8.33;;;;;;;23.76;38.50;157477.69;4995487;28;20500;-78
2023/06/14 08:42:49;;;;;;;8.40;7.53;;;;;;;24.29;38.15;157616.34;5006282;28;20460;-77
2023/06/14 08:45:16;;;;;;;8.77;7.23;;;;;;;24.57;37.66;157688.31;5004874;28;21065;-78
2023/06/14 08:47:45;;;;;;;9.73;7.27;;;;;;;24.55;37.39;157684.38;5005738;28;20456;-77
2023/06/14 08:50:15;;;;;;;8.70;7.50;;;;;;;24.34;37.03;157628.13;5004175;28;20476;-77
2023/06/14 08:52:50;;;;;;;8.37;7.57;;;;;;;23.82;38.24;157494.72;4988913;28;20827;-77
2023/06/14 08:55:19;;;;;;;8.30;7.60;;;;;;;23.97;39.09;157533.91;5003217;28;20481;-77
2023/06/14 08:57:47;;;;;;;10.13;7.30;;;;;;;24.33;37.21;157626.78;4995672;28;20457;-77
2023/06/14 09:00:15;;;;;;;8.77;7.97;;;;;;;24.03;37.39;157549.63;4989241;28;20481;-77
2023/06/14 09:02:43;;;;;;;8.20;7.50;;;;;;;24.04;38.01;157552.22;5004992;28;20966;-77
2023/06/14 09:05:13;;;;;;;8.67;7.90;;;;;;;24.42;37.82;157650.34;4982948;28;20445;-77
2023/06/14 09:07:41;;;;;;;8.80;7.90;;;;;;;24.20;37.06;157594.09;5005516;28;20818;-77
2023/06/14 09:10:10;;;;;;;8.40;7.60;;;;;;;24.13;37.59;157575.81;5006614;28;20773;-77
2023/06/14 09:12:37;;;;;;;7.33;6.73;;;;;;;24.01;37.50;157544.34;5005620;28;20795;-77
2023/06/14 09:15:05;;;;;;;8.03;7.23;;;;;;;23.86;38.03;157505.16;5004494;28;20495;-77
2023/06/14 09:17:34;;;;;;;8.03;7.33;;;;;;;23.98;37.53;157535.25;5002403;28;20847;-77
2023/06/14 09:20:01;;;;;;;8.73;7.57;;;;;;;24.20;37.30;157594.09;5005624;28;21019;-77
2023/06/14 09:22:30;;;;;;;10.40;7.53;;;;;;;24.69;37.36;157719.69;5005684;28;20827;-77
2023/06/14 09:24:57;;;;;;;8.37;7.67;;;;;;;24.93;35.66;157781.22;5005730;28;20458;-78
2023/06/14 09:27:24;;;;;;;8.50;7.70;;;;;;;24.78;36.33;157743.25;5003271;28;20457;-77
2023/06/14 09:29:50;;;;;;;8.47;7.50;;;;;;;24.23;36.01;157600.66;5003954;28;20448;-77
2023/06/14 09:32:17;;;;;;;8.30;7.43;;;;;;;23.98;36.83;157536.56;5004426;28;20469;-77
2023/06/14 09:34:43;;;;;;;7.73;7.03;;;;;;;23.95;36.74;157528.69;5003242;28;20547;-77
2023/06/14 09:37:10;;;;;;;7.50;6.77;;;;;;;23.95;36.66;157528.69;5003845;28;20468;-77
2023/06/14 09:39:50;;;;;;;9.23;8.33;;;;;;;23.89;36.91;157513.00;5004508;28;20984;-77
2023/06/14 09:42:20;;;;;;;7.93;7.27;;;;;;;23.64;36.92;157448.91;5001909;28;20464;-77
2023/06/14 09:44:51;;;;;;;7.90;7.20;;;;;;;24.07;37.14;157560.06;5003245;28;20520;-77
2023/06/14 09:47:19;;;;;;;7.73;7.03;;;;;;;24.38;36.24;157639.91;5005359;28;20451;-77
2023/06/14 09:49:45;;;;;;;7.03;6.43;;;;;;;24.10;36.16;157566.66;5004048;28;20468;-77
2023/06/14 09:52:15;;;;;;;7.90;7.10;;;;;;;23.96;34.63;157531.28;5005044;28;20467;-77
2023/06/14 09:54:46;;;;;;;7.23;6.53;;;;;;;24.03;35.46;157549.63;5003225;28;20998;-77
2023/06/14 09:57:13;;;;;;;7.40;6.53;;;;;;;24.51;34.21;157672.59;5004195;28;20448;-77
2023/06/14 09:59:42;;;;;;;7.97;7.00;;;;;;;24.40;35.71;157643.81;5004254;28;20708;-77
2023/06/14 10:02:19;;;;;;;6.90;6.30;;;;;;;24.62;34.94;157702.66;5004770;28;20551;-77
2023/06/14 10:04:50;;;;;;;8.27;6.17;;;;;;;24.90;34.74;157774.69;5005707;28;20462;-77
2023/06/14 10:07:20;;;;;;;6.37;5.83;;;;;;;24.85;33.58;157761.59;5004659;28;20457;-77
2023/06/14 10:09:49;;;;;;;7.37;6.70;;;;;;;24.63;33.76;157703.97;5004258;28;20459;-78
2023/06/14 10:12:20;;;;;;;7.83;6.80;;;;;;;24.05;34.86;157554.84;5002046;28;20809;-77
2023/06/14 10:14:49;;;;;;;6.67;6.00;;;;;;;23.47;34.50;157403.19;5003919;28;21133;-77
2023/06/14 10:17:23;;;;;;;7.23;6.63;;;;;;;23.29;35.36;157356.09;4993465;28;20835;-77
2023/06/14 10:19:53;;;;;;;6.43;5.83;;;;;;;23.52;34.66;157416.25;4993818;28;20464;-77
2023/06/14 10:22:25;;;;;;;6.37;5.83;;;;;;;23.73;33.81;157469.84;5003849;28;20471;-78
2023/06/14 10:24:53;;;;;;;6.80;6.10;;;;;;;23.62;34.64;157442.38;5003303;28;20445;-77
2023/06/14 10:27:23;;;;;;;6.50;5.90;;;;;;;23.50;35.20;157411.03;4996256;28;20845;-78
2023/06/14 10:30:11;;;;;;;11.03;6.57;;;;;;;23.84;35.26;157499.94;5001566;28;20818;-78
2023/06/14 10:33:04;;;;;;;6.80;6.20;;;;;;;24.33;33.57;157625.53;4995846;28;20464;-78
2023/06/14 10:35:31;;;;;;;6.20;5.70;;;;;;;24.59;33.26;157694.84;5003338;28;20449;-78
2023/06/14 10:38:07;;;;;;;6.23;5.73;;;;;;;24.78;33.24;157743.25;4985132;28;20966;-78
2023/06/14 10:40:35;;;;;;;10.30;6.20;;;;;;;25.01;31.81;157803.47;5001753;28;20463;-78
2023/06/14 10:43:02;;;;;;;6.13;5.53;;;;;;;24.88;32.68;157768.16;5003041;28;21171;-78
2023/06/14 10:45:28;;;;;;;6.50;5.90;;;;;;;24.25;33.33;157604.59;5002353;28;20449;-78
2023/06/14 10:47:58;;;;;;;8.50;6.37;;;;;;;24.26;33.18;157607.19;5003240;28;20986;-77
2023/06/14 10:50:29;;;;;;;6.37;5.87;;;;;;;23.86;33.33;157505.16;4986043;28;20457;-77
2023/06/14 10:52:55;;;;;;;7.10;6.40;;;;;;;23.78;33.40;157484.22;5002390;28;20975;-78
2023/06/14 10:55:23;;;;;;;6.70;6.00;;;;;;;24.29;33.75;157615.03;4992689;28;20445;-78
2023/06/14 10:57:52;;;;;;;6.17;5.67;;;;;;;24.47;33.76;157663.44;5001458;28;20457;-77
2023/06/14 11:00:22;;;;;;;7.30;6.70;;;;;;;23.71;34.41;157465.94;4988493;28;20472;-77
2023/06/14 11:03:43;;;;;;;7.30;5.70;;;;;;;23.69;32.88;157459.41;5006054;28;20453;-77
2023/06/14 11:06:15;;;;;;;7.30;6.60;;;;;;;23.73;34.79;157471.16;5004684;28;20457;-77
2023/06/14 11:09:09;;;;;;;8.70;6.60;;;;;;;23.52;35.85;157416.25;5007580;28;21120;-77
2023/06/14 11:11:36;;;;;;;7.53;6.83;;;;;;;23.50;36.30;157411.03;4988799;28;20460;-77
2023/06/14 11:14:05;;;;;;;6.90;6.20;;;;;;;23.62;36.22;157442.38;5005594;28;20492;-77
2023/06/14 11:16:33;;;;;;;7.17;6.13;;;;;;;23.63;34.26;157445.03;5006982;28;20467;-77
2023/06/14 11:19:01;;;;;;;7.00;5.80;;;;;;;23.80;35.57;157489.44;5007669;28;20464;-77
2023/06/14 11:21:31;;;;;;;7.27;5.83;;;;;;;23.79;35.10;157485.53;5005648;28;20491;-77
2023/06/14 11:23:57;;;;;;;6.80;6.20;;;;;;;23.56;35.36;157428.00;5004718;28;20816;-77
2023/06/14 11:26:28;;;;;;;10.47;6.47;;;;;;;23.28;35.42;157353.47;5007880;28;20448;-77
2023/06/14 11:28:58;;;;;;;6.30;5.67;;;;;;;23.08;35.68;157302.53;5006256;28;20758;-77